Time;durP1;ratioP1;P1;durP2;ratioP2;P2;SDS_P1;SDS_P2;PMS_P1;PMS_P2;Temp;Humidity;BMP_temperature;BMP_pressure;BME280_temperature;BME280_humidity;BME280_pressure;Samples;Min_cycle;Max_cycle;Signal;HPM_P1;HPM_P2
2021/07/02 00:01:38;;;;;;;3.17;1.00;;;;;;;18.63;66.22;100855.33;1729666;83;21780;-82
2021/07/02 00:04:06;;;;;;;0.80;0.80;;;;;;;18.63;66.25;100857.54;1729703;83;21559;-82
2021/07/02 00:06:33;;;;;;;0.98;0.90;;;;;;;18.66;66.29;100855.33;1729797;83;21082;-82
2021/07/02 00:09:00;;;;;;;1.35;0.88;;;;;;;18.67;66.35;100851.74;1722892;82;21004;-82
2021/07/02 00:11:27;;;;;;;1.52;1.10;;;;;;;18.67;66.34;100854.41;1679387;84;21026;-82
2021/07/02 00:13:53;;;;;;;3.08;1.15;;;;;;;18.68;66.41;100846.86;1713984;83;21759;-82
2021/07/02 00:16:20;;;;;;;1.42;0.90;;;;;;;18.69;66.37;100843.28;1714114;83;21062;-81
2021/07/02 00:18:47;;;;;;;1.62;1.07;;;;;;;18.70;66.43;100838.86;1714021;83;21011;-82
2021/07/02 00:21:14;;;;;;;1.17;1.07;;;;;;;18.68;66.41;100838.86;1714206;83;21043;-82
2021/07/02 00:23:41;;;;;;;0.88;0.88;;;;;;;18.68;66.50;100845.53;1714138;83;21480;-82
2021/07/02 00:26:09;;;;;;;2.00;0.82;;;;;;;18.68;66.59;100848.20;1714047;83;22568;-82
2021/07/02 00:28:37;;;;;;;1.40;1.07;;;;;;;18.69;66.59;100844.61;1697704;83;21117;-82
2021/07/02 00:31:04;;;;;;;1.00;0.90;;;;;;;18.70;66.61;100846.41;1697790;83;20995;-81
2021/07/02 00:33:31;;;;;;;1.22;1.00;;;;;;;18.69;66.62;100842.41;1713959;83;21179;-81
2021/07/02 00:35:58;;;;;;;2.47;0.93;;;;;;;18.67;66.68;100842.86;1679230;85;21075;-81
2021/07/02 00:38:24;;;;;;;0.90;0.90;;;;;;;18.65;66.71;100842.87;1714235;83;21790;-82
2021/07/02 00:40:51;;;;;;;1.10;1.00;;;;;;;18.65;66.78;100848.20;1713895;83;20993;-81
2021/07/02 00:43:18;;;;;;;1.70;1.05;;;;;;;18.64;66.80;100843.33;1713922;83;21062;-81
2021/07/02 00:45:45;;;;;;;0.93;0.90;;;;;;;18.63;66.84;100844.20;1713948;83;21564;-82
2021/07/02 00:48:12;;;;;;;1.25;1.15;;;;;;;18.61;66.86;100846.00;1714097;83;21027;-82
2021/07/02 00:50:42;;;;;;;1.22;1.12;;;;;;;18.60;66.95;100844.67;1713932;82;22591;-82
2021/07/02 00:53:07;;;;;;;1.30;1.20;;;;;;;18.56;66.93;100841.59;1713554;83;21014;-82
2021/07/02 00:55:35;;;;;;;3.25;1.07;;;;;;;18.57;67.04;100843.38;1714045;83;21065;-83
2021/07/02 00:58:04;;;;;;;1.05;0.90;;;;;;;18.56;67.08;100853.17;1714100;83;21083;-83
2021/07/02 01:00:31;;;;;;;1.10;1.00;;;;;;;18.56;67.12;100855.84;1714141;83;20979;-82
2021/07/02 01:02:57;;;;;;;2.52;1.32;;;;;;;18.54;67.14;100848.27;1714062;83;21740;-82
2021/07/02 01:05:25;;;;;;;1.07;1.00;;;;;;;18.53;67.20;100845.18;1714068;83;21002;-82
2021/07/02 01:07:51;;;;;;;1.50;0.90;;;;;;;18.55;67.26;100851.84;1714025;83;21496;-82
2021/07/02 01:10:19;;;;;;;1.10;1.00;;;;;;;18.54;67.28;100841.59;1727366;82;21029;-82
2021/07/02 01:12:46;;;;;;;1.05;0.98;;;;;;;18.53;67.27;100845.63;1729550;83;21068;-82
2021/07/02 01:15:22;;;;;;;1.17;0.90;;;;;;;18.52;67.36;100834.06;1729786;83;21763;-82
2021/07/02 01:17:48;;;;;;;1.40;0.90;;;;;;;18.54;67.40;100836.27;1729688;83;21061;-82
2021/07/02 01:20:15;;;;;;;1.42;1.00;;;;;;;18.53;67.38;100832.30;1729957;82;21010;-82
2021/07/02 01:22:42;;;;;;;1.00;0.90;;;;;;;18.52;67.43;100831.86;1729775;83;20994;-83
2021/07/02 01:25:10;;;;;;;2.60;1.02;;;;;;;18.52;67.51;100833.19;1730004;83;21084;-83
2021/07/02 01:27:37;;;;;;;1.45;1.12;;;;;;;18.52;67.54;100835.86;1729830;83;22384;-83
2021/07/02 01:30:06;;;;;;;1.32;1.22;;;;;;;18.53;67.59;100840.30;1729814;83;20986;-83
2021/07/02 01:32:33;;;;;;;0.90;0.90;;;;;;;18.54;67.60;100835.39;1729722;83;21001;-83
2021/07/02 01:35:02;;;;;;;2.22;1.20;;;;;;;18.54;67.57;100844.27;1729632;82;21025;-82
2021/07/02 01:37:29;;;;;;;3.27;1.17;;;;;;;18.52;67.59;100834.06;1730070;83;21085;-83
2021/07/02 01:39:56;;;;;;;1.22;1.12;;;;;;;18.52;67.65;100838.52;1729658;83;22437;-82
2021/07/02 01:42:22;;;;;;;1.35;1.25;;;;;;;18.53;67.74;100838.97;1729593;83;21566;-82
2021/07/02 01:44:49;;;;;;;1.27;1.17;;;;;;;18.56;67.79;100839.84;1729901;83;21461;-82
2021/07/02 01:47:16;;;;;;;1.67;1.50;;;;;;;18.57;67.78;100838.92;1729765;83;21554;-82
2021/07/02 01:49:43;;;;;;;1.52;1.32;;;;;;;18.58;67.78;100839.80;1729558;83;21128;-82
2021/07/02 01:52:10;;;;;;;2.05;1.32;;;;;;;18.58;67.80;100837.14;1729411;83;21751;-82
2021/07/02 01:54:37;;;;;;;1.50;1.40;;;;;;;18.59;67.84;100845.12;1729535;83;21049;-81
2021/07/02 01:57:06;;;;;;;1.20;1.10;;;;;;;18.57;67.83;100839.38;1729608;82;21495;-81
2021/07/02 01:59:33;;;;;;;1.75;1.40;;;;;;;18.56;67.89;100839.84;1701446;83;21014;-81
2021/07/02 02:02:00;;;;;;;1.50;1.40;;;;;;;18.58;68.01;100836.72;1729753;82;21002;-81
2021/07/02 02:04:27;;;;;;;2.85;1.15;;;;;;;18.58;68.13;100841.14;1729812;83;21740;-80
2021/07/02 02:06:58;;;;;;;2.15;1.50;;;;;;;18.58;68.20;100844.71;1729606;82;20998;-80
2021/07/02 02:09:25;;;;;;;2.17;1.50;;;;;;;18.57;68.36;100841.59;1723710;82;20991;-82
2021/07/02 02:11:52;;;;;;;1.45;1.35;;;;;;;18.59;68.45;100839.80;1679138;85;21079;-82
2021/07/02 02:14:19;;;;;;;1.47;1.37;;;;;;;18.58;68.56;100840.71;1713774;83;21038;-82
2021/07/02 02:16:46;;;;;;;1.60;1.50;;;;;;;18.58;68.60;100830.47;1713976;83;21752;-82
2021/07/02 02:19:12;;;;;;;1.87;1.50;;;;;;;18.57;68.74;100830.05;1713810;82;21516;-82
2021/07/02 02:21:39;;;;;;;2.40;1.80;;;;;;;18.55;68.87;100832.72;1713967;83;21078;-82
2021/07/02 02:24:06;;;;;;;3.92;1.67;;;;;;;18.53;69.05;100835.85;1713900;83;21003;-81
2021/07/02 02:26:33;;;;;;;3.30;1.72;;;;;;;18.53;69.12;100837.18;1714099;83;20967;-82
2021/07/02 02:29:00;;;;;;;2.10;1.85;;;;;;;18.54;69.27;100840.72;1713925;83;22446;-81
2021/07/02 02:31:27;;;;;;;3.90;2.20;;;;;;;18.53;69.40;100841.64;1713924;83;21066;-81
2021/07/02 02:33:54;;;;;;;4.45;2.00;;;;;;;18.53;69.51;100832.30;1714076;83;21062;-81
2021/07/02 02:36:21;;;;;;;2.98;2.45;;;;;;;18.52;69.69;100827.86;1714041;83;21532;-81
2021/07/02 02:38:48;;;;;;;2.72;2.20;;;;;;;18.51;69.70;100828.31;1714281;83;21125;-81
2021/07/02 02:41:15;;;;;;;6.53;2.50;;;;;;;18.48;69.75;100828.78;1714058;83;21763;-81
2021/07/02 02:43:42;;;;;;;3.70;2.50;;;;;;;18.45;69.94;100829.23;1713938;83;20991;-81
2021/07/02 02:46:08;;;;;;;5.30;2.47;;;;;;;18.42;69.98;100837.23;1697623;83;21129;-81
2021/07/02 02:48:35;;;;;;;3.45;3.00;;;;;;;18.41;70.07;100835.91;1714039;83;21038;-80
2021/07/02 02:51:02;;;;;;;2.75;2.55;;;;;;;18.38;70.26;100838.16;1714007;83;21054;-80
2021/07/02 02:53:30;;;;;;;3.50;2.83;;;;;;;18.36;70.22;100832.41;1713685;83;22480;-80
2021/07/02 02:55:57;;;;;;;4.05;3.20;;;;;;;18.35;70.38;100834.63;1697809;83;21061;-80
2021/07/02 02:58:24;;;;;;;4.80;3.50;;;;;;;18.34;70.40;100836.41;1679211;85;21615;-80
2021/07/02 03:00:50;;;;;;;4.05;3.20;;;;;;;18.31;70.57;100831.09;1713884;83;21007;-80
2021/07/02 03:03:20;;;;;;;4.17;3.10;;;;;;;18.32;70.62;100833.30;1714014;82;21038;-81
2021/07/02 03:05:48;;;;;;;5.78;3.85;;;;;;;18.30;70.59;100836.42;1713983;83;22609;-81
2021/07/02 03:08:15;;;;;;;4.53;3.95;;;;;;;18.31;70.73;100836.41;1714101;83;21042;-81
2021/07/02 03:10:44;;;;;;;4.15;3.62;;;;;;;18.26;70.76;100827.13;1726031;82;21021;-81
2021/07/02 03:13:12;;;;;;;4.45;4.05;;;;;;;18.24;70.99;100823.59;1729730;82;21010;-82
2021/07/02 03:15:39;;;;;;;4.53;4.12;;;;;;;18.24;71.11;100825.34;1729563;83;21073;-81
2021/07/02 03:18:06;;;;;;;6.12;3.90;;;;;;;18.26;71.22;100827.13;1729912;83;21720;-82
2021/07/02 03:20:33;;;;;;;5.20;4.70;;;;;;;18.28;71.35;100822.22;1729883;83;21456;-82
2021/07/02 03:23:00;;;;;;;6.67;3.65;;;;;;;18.28;71.33;100819.55;1729711;81;21066;-81
2021/07/02 03:25:27;;;;;;;5.45;4.47;;;;;;;18.27;71.44;100813.35;1729832;83;21041;-80
2021/07/02 03:27:54;;;;;;;6.15;4.10;;;;;;;18.29;71.50;100817.34;1729793;82;21002;-82
2021/07/02 03:30:21;;;;;;;5.40;4.62;;;;;;;18.29;71.57;100817.34;1729838;83;21687;-81
2021/07/02 03:32:48;;;;;;;5.00;4.50;;;;;;;18.31;71.64;100812.89;1729726;83;21081;-81
2021/07/02 03:35:15;;;;;;;5.40;4.90;;;;;;;18.30;71.71;100808.02;1729916;82;21022;-81
2021/07/02 03:37:42;;;;;;;5.65;4.67;;;;;;;18.32;71.72;100818.64;1729842;82;21038;-81
2021/07/02 03:40:10;;;;;;;5.12;4.62;;;;;;;18.34;71.79;100811.52;1729817;83;21064;-81
2021/07/02 03:42:37;;;;;;;6.42;5.47;;;;;;;18.36;71.84;100811.09;1729670;83;21773;-81
2021/07/02 03:45:06;;;;;;;6.80;4.83;;;;;;;18.38;71.89;100818.62;1729775;83;21578;-82
2021/07/02 03:47:33;;;;;;;9.68;5.72;;;;;;;18.38;71.91;100810.63;1729838;83;20990;-82
2021/07/02 03:50:01;;;;;;;7.47;6.05;;;;;;;18.41;71.97;100817.25;1729558;83;39224;-82
2021/07/02 03:52:29;;;;;;;7.15;5.37;;;;;;;18.44;71.90;100818.58;1729684;81;21069;-81
2021/07/02 03:54:56;;;;;;;6.25;5.65;;;;;;;18.41;71.90;100815.50;1729743;83;21784;-82
2021/07/02 03:57:22;;;;;;;6.05;5.55;;;;;;;18.41;71.92;100818.16;1729801;83;21069;-81
2021/07/02 03:59:51;;;;;;;6.28;5.62;;;;;;;18.43;72.03;100827.03;1729818;82;21002;-81
2021/07/02 04:02:18;;;;;;;6.72;5.47;;;;;;;18.46;72.13;100822.99;1729980;82;21570;-86
2021/07/02 04:04:45;;;;;;;6.65;6.05;;;;;;;18.49;72.12;100819.45;1730088;83;21558;-86
2021/07/02 04:07:13;;;;;;;5.90;5.40;;;;;;;18.52;72.10;100811.41;1729913;82;21750;-81
2021/07/02 04:09:40;;;;;;;10.48;6.20;;;;;;;18.53;72.07;100806.98;1729724;82;21065;-80
2021/07/02 04:12:08;;;;;;;8.35;6.80;;;;;;;18.53;72.09;100804.32;1729748;83;21037;-81
2021/07/02 04:14:34;;;;;;;7.58;6.87;;;;;;;18.57;72.14;100796.27;1716871;83;21239;-80
2021/07/02 04:17:01;;;;;;;7.30;6.42;;;;;;;18.59;72.14;100804.27;1677282;85;21079;-82
2021/07/02 04:19:28;;;;;;;9.58;6.90;;;;;;;18.57;72.07;100806.94;1717093;83;21725;-83
2021/07/02 04:21:54;;;;;;;10.08;6.87;;;;;;;18.58;72.17;100814.48;1716943;83;21066;-82
2021/07/02 04:24:21;;;;;;;7.20;6.40;;;;;;;18.59;72.25;100808.27;1709642;83;20997;-84
2021/07/02 04:26:48;;;;;;;7.75;6.83;;;;;;;18.62;72.23;100802.47;1709569;84;21303;-84
2021/07/02 04:29:14;;;;;;;8.03;7.22;;;;;;;18.67;72.28;100812.20;1709931;84;21021;-87
2021/07/02 04:31:41;;;;;;;9.98;8.08;;;;;;;18.71;72.25;100808.61;1681538;84;21768;-87
2021/07/02 04:34:08;;;;;;;10.30;8.40;;;;;;;18.75;72.30;100806.35;1709421;83;21017;-86
2021/07/02 04:36:35;;;;;;;10.80;6.95;;;;;;;18.80;72.31;100808.55;1709310;83;21029;-85
2021/07/02 04:39:03;;;;;;;12.53;8.50;;;;;;;18.87;72.30;100800.97;1709352;83;21096;-86
2021/07/02 04:41:29;;;;;;;11.78;7.65;;;;;;;18.91;72.23;100804.50;1709432;83;21584;-84
2021/07/02 04:43:56;;;;;;;8.50;7.60;;;;;;;18.92;72.18;100803.58;1709364;84;21755;-84
2021/07/02 04:46:23;;;;;;;9.28;7.83;;;;;;;18.95;72.11;100799.56;1709371;83;21547;-84
2021/07/02 04:48:49;;;;;;;10.23;8.48;;;;;;;18.98;72.06;100795.55;1709514;84;21088;-84
2021/07/02 04:51:16;;;;;;;10.82;8.30;;;;;;;19.01;71.93;100792.83;1709324;84;21550;-83
2021/07/02 04:53:43;;;;;;;8.88;7.97;;;;;;;19.02;72.00;100792.83;1709264;84;21116;-84
2021/07/02 04:56:12;;;;;;;9.38;8.45;;;;;;;19.06;71.91;100799.02;1709518;84;22689;-83
2021/07/02 04:58:41;;;;;;;9.00;8.00;;;;;;;19.09;71.92;100797.67;1709306;84;21123;-84
2021/07/02 05:01:07;;;;;;;11.40;8.53;;;;;;;19.12;71.96;100802.08;1709307;84;21065;-81
2021/07/02 05:03:34;;;;;;;12.53;9.38;;;;;;;19.18;72.01;100803.34;1709277;84;20965;-84
2021/07/02 05:06:03;;;;;;;11.45;9.03;;;;;;;19.22;71.93;100808.66;1709449;83;21065;-83
2021/07/02 05:08:35;;;;;;;9.53;8.60;;;;;;;19.29;71.88;100804.59;1708738;83;21781;-79
2021/07/02 05:11:02;;;;;;;13.35;9.25;;;;;;;19.35;71.89;100808.09;1708333;83;21009;-82
2021/07/02 05:13:30;;;;;;;10.60;9.23;;;;;;;19.41;71.81;100806.69;1715861;83;21070;-82
2021/07/02 05:15:57;;;;;;;10.10;8.55;;;;;;;19.46;71.78;100808.41;1686604;83;21014;-82
2021/07/02 05:18:24;;;;;;;13.03;9.90;;;;;;;19.51;71.69;100813.27;1715945;83;21067;-82
2021/07/02 05:20:50;;;;;;;10.75;9.73;;;;;;;19.58;71.63;100813.17;1715612;83;22651;-80
2021/07/02 05:23:17;;;;;;;11.43;9.00;;;;;;;19.61;71.54;100817.16;1715609;83;21052;-82
2021/07/02 05:25:44;;;;;;;10.68;8.58;;;;;;;19.68;71.54;100814.41;1717136;83;21020;-82
2021/07/02 05:28:11;;;;;;;10.48;8.75;;;;;;;19.77;71.40;100815.20;1717005;83;21123;-82
2021/07/02 05:30:37;;;;;;;10.93;8.35;;;;;;;19.80;71.21;100815.61;1717065;83;21071;-83
2021/07/02 05:33:04;;;;;;;11.10;8.70;;;;;;;19.84;71.05;100817.80;1717046;83;21747;-83
2021/07/02 05:35:30;;;;;;;11.57;9.25;;;;;;;19.89;71.02;100814.62;1717075;83;21051;-83
2021/07/02 05:37:57;;;;;;;12.07;8.95;;;;;;;19.96;70.98;100817.20;1717087;83;21095;-81
2021/07/02 05:40:24;;;;;;;10.00;8.23;;;;;;;20.01;70.94;100809.14;1717248;83;21067;-83
2021/07/02 05:42:51;;;;;;;10.75;9.13;;;;;;;20.12;70.96;100811.22;1717082;83;21016;-83
2021/07/02 05:45:18;;;;;;;10.05;8.45;;;;;;;20.19;70.67;100814.22;1717194;83;22464;-82
2021/07/02 05:47:58;;;;;;;10.60;7.90;;;;;;;20.25;70.68;100815.92;1717162;83;21040;-84
2021/07/02 05:50:20;;;;;;;12.47;10.72;;;;;;;20.34;70.62;100817.13;1716173;83;21132;-82
2021/07/02 05:52:47;;;;;;;11.43;9.08;;;;;;;20.38;70.31;100812.63;1716896;83;21585;-83
2021/07/02 05:55:14;;;;;;;10.13;8.18;;;;;;;20.43;70.33;100809.90;1717162;83;21068;-85
2021/07/02 05:57:41;;;;;;;9.60;7.53;;;;;;;20.52;70.33;100817.79;1717015;83;21776;-82
2021/07/02 06:00:11;;;;;;;10.20;7.53;;;;;;;20.65;70.30;100814.05;1716741;82;21007;-83
2021/07/02 06:02:56;;;;;;;9.90;7.40;;;;;;;20.76;70.07;100813.89;1716881;83;21560;-83
2021/07/02 06:05:32;;;;;;;9.53;7.65;;;;;;;20.86;69.91;100814.62;1711897;83;21084;-82
2021/07/02 06:07:55;;;;;;;8.78;7.67;;;;;;;20.97;69.76;100815.31;1711028;83;21499;-83
2021/07/02 06:10:25;;;;;;;9.68;7.50;;;;;;;21.09;69.59;100813.75;1715364;83;21761;-83
2021/07/02 06:12:52;;;;;;;8.93;7.53;;;;;;;21.15;69.21;100817.69;1714081;83;21163;-83
2021/07/02 06:15:20;;;;;;;11.35;7.33;;;;;;;21.24;69.21;100810.39;1714629;83;21099;-82
2021/07/02 06:17:49;;;;;;;9.38;6.30;;;;;;;21.42;69.23;100813.19;1714474;83;21060;-81
2021/07/02 06:20:17;;;;;;;12.75;8.10;;;;;;;21.54;69.00;100811.17;1714306;83;21115;-82
2021/07/02 06:22:45;;;;;;;9.23;6.62;;;;;;;21.68;68.75;100817.62;1714446;83;21782;-82
2021/07/02 06:25:12;;;;;;;8.70;7.35;;;;;;;21.80;68.44;100826.32;1714834;83;21032;-85
2021/07/02 06:27:41;;;;;;;8.03;6.28;;;;;;;21.77;67.92;100822.34;1714520;83;21069;-84
2021/07/02 06:30:09;;;;;;;8.50;6.33;;;;;;;21.72;67.50;100834.05;1714782;83;21072;-83
2021/07/02 06:32:36;;;;;;;10.43;7.30;;;;;;;21.55;67.42;100830.36;1714680;83;20961;-83
2021/07/02 06:35:04;;;;;;;8.40;6.33;;;;;;;21.51;67.45;100835.36;1714718;83;21773;-84
2021/07/02 06:37:32;;;;;;;9.43;6.50;;;;;;;21.50;67.49;100838.93;1714729;83;21467;-83
2021/07/02 06:39:59;;;;;;;8.20;5.90;;;;;;;21.44;67.08;100828.34;1714666;83;21119;-83
2021/07/02 06:42:28;;;;;;;6.83;5.87;;;;;;;21.56;67.82;100836.59;1714676;83;21025;-84
2021/07/02 06:44:55;;;;;;;7.05;6.30;;;;;;;21.68;67.43;100832.81;1714750;83;21628;-83
2021/07/02 06:47:22;;;;;;;7.37;6.17;;;;;;;21.76;66.97;100828.64;1714667;83;22512;-83
2021/07/02 06:49:50;;;;;;;7.47;5.75;;;;;;;21.68;66.80;100832.81;1714667;83;21091;-83
2021/07/02 06:52:17;;;;;;;5.75;5.05;;;;;;;21.71;67.07;100838.09;1714486;83;21029;-84
2021/07/02 06:54:45;;;;;;;8.35;5.78;;;;;;;21.85;67.16;100839.17;1714451;83;21043;-84
2021/07/02 06:57:15;;;;;;;7.60;5.97;;;;;;;21.90;66.87;100841.28;1714864;83;21099;-83
2021/07/02 06:59:42;;;;;;;7.10;5.83;;;;;;;21.94;66.46;100833.59;1714809;83;22615;-83
2021/07/02 07:02:12;;;;;;;8.55;5.40;;;;;;;22.05;66.57;100836.94;1714689;83;21037;-83
2021/07/02 07:04:40;;;;;;;6.70;5.50;;;;;;;22.06;66.13;100843.20;1714354;83;21076;-83
2021/07/02 07:07:09;;;;;;;9.80;8.30;;;;;;;22.04;66.34;100840.55;1713155;82;21072;-84
2021/07/02 07:09:36;;;;;;;9.15;7.08;;;;;;;22.24;66.35;100836.55;1714716;83;21017;-85
2021/07/02 07:12:04;;;;;;;8.35;6.33;;;;;;;22.46;66.29;100832.97;1714631;83;21918;-84
2021/07/02 07:14:32;;;;;;;9.70;6.08;;;;;;;22.67;65.85;100832.91;1714663;83;20986;-84
2021/07/02 07:16:59;;;;;;;8.43;6.00;;;;;;;22.81;65.72;100831.27;1714889;83;21546;-84
2021/07/02 07:19:28;;;;;;;8.38;6.40;;;;;;;22.94;65.36;100831.38;1714910;83;21068;-85
2021/07/02 07:21:56;;;;;;;8.90;5.62;;;;;;;22.69;64.70;100822.59;1715057;83;21502;-85
2021/07/02 07:24:23;;;;;;;9.83;5.60;;;;;;;22.69;64.70;100822.59;1714938;83;21761;-86
2021/07/02 07:26:50;;;;;;;11.03;6.72;;;;;;;22.81;64.47;100838.84;1714937;83;21021;-84
2021/07/02 07:29:17;;;;;;;7.58;5.53;;;;;;;22.85;64.61;100838.31;1714979;83;21523;-85
2021/07/02 07:31:44;;;;;;;6.33;5.35;;;;;;;22.90;64.37;100841.78;1714777;83;21161;-82
2021/07/02 07:34:11;;;;;;;9.23;6.90;;;;;;;22.82;63.98;100841.06;1714686;83;21068;-84
2021/07/02 07:36:38;;;;;;;9.50;6.03;;;;;;;22.59;63.85;100839.81;1714905;83;21753;-85
2021/07/02 07:39:05;;;;;;;5.70;5.03;;;;;;;22.61;64.09;100849.17;1714739;83;21502;-83
2021/07/02 07:41:32;;;;;;;7.45;5.35;;;;;;;22.68;64.46;100853.48;1714907;83;21001;-82
2021/07/02 07:43:59;;;;;;;8.38;6.10;;;;;;;22.56;63.84;100834.97;1714587;83;21534;-81
2021/07/02 07:46:28;;;;;;;6.60;5.22;;;;;;;22.56;63.84;100834.97;1714694;83;21102;-82
2021/07/02 07:48:55;;;;;;;5.83;5.22;;;;;;;22.34;63.07;100856.93;1714718;83;22466;-83
2021/07/02 07:53:55;;;;;;;7.40;5.55;;;;;;;22.17;63.42;100861.28;1715002;83;21025;-81
2021/07/02 07:56:22;;;;;;;5.95;4.47;;;;;;;21.94;63.43;100861.73;1714782;83;21032;-84
2021/07/02 07:58:49;;;;;;;9.50;8.25;;;;;;;21.85;64.17;100845.41;1714795;83;21342;-84
2021/07/02 08:01:16;;;;;;;8.40;5.12;;;;;;;22.01;64.23;100856.69;1714901;83;21935;-86
2021/07/02 08:03:42;;;;;;;5.30;4.70;;;;;;;22.03;63.79;100866.91;1714814;83;21005;-85
2021/07/02 08:06:11;;;;;;;6.65;4.67;;;;;;;22.03;63.79;100866.91;1714969;83;21075;-83
2021/07/02 08:08:38;;;;;;;8.60;5.28;;;;;;;22.14;64.04;100866.70;1715006;83;21012;-86
2021/07/02 08:11:05;;;;;;;7.87;4.67;;;;;;;22.13;63.74;100872.99;1714856;83;21041;-82
2021/07/02 08:13:33;;;;;;;6.58;4.58;;;;;;;22.15;64.30;100853.73;1714896;83;21799;-88
2021/07/02 08:16:00;;;;;;;5.90;4.75;;;;;;;22.27;64.73;100846.78;1714688;83;21067;-83
2021/07/02 08:18:28;;;;;;;6.90;4.45;;;;;;;22.27;64.73;100846.78;1714891;83;21461;-84
2021/07/02 08:20:55;;;;;;;6.15;4.67;;;;;;;22.55;64.56;100873.46;1714775;83;21013;-83
2021/07/02 08:23:22;;;;;;;5.50;4.12;;;;;;;22.62;64.06;100876.44;1714942;83;21040;-83
2021/07/02 08:25:48;;;;;;;6.10;4.08;;;;;;;22.65;64.16;100880.37;1714911;83;21730;-85
2021/07/02 08:31:01;;;;;;;5.70;5.08;;;;;;;22.69;64.04;100880.72;1714948;83;21514;-82
2021/07/02 08:33:28;;;;;;;8.28;4.85;;;;;;;22.52;64.08;100878.41;1714864;83;21506;-86
2021/07/02 08:35:56;;;;;;;5.65;4.87;;;;;;;22.52;64.08;100878.41;1715093;83;21087;-90
2021/07/02 08:38:26;;;;;;;5.25;4.53;;;;;;;22.51;63.88;100882.91;1714776;83;21742;-86
2021/07/02 08:40:54;;;;;;;5.75;5.15;;;;;;;22.54;64.00;100877.92;1714757;83;21081;-84
2021/07/02 08:43:20;;;;;;;5.62;4.42;;;;;;;22.60;63.92;100880.48;1686558;83;21099;-86
2021/07/02 08:45:48;;;;;;;7.72;4.75;;;;;;;22.62;63.97;100875.09;1714866;83;21092;-83
2021/07/02 08:48:19;;;;;;;7.87;5.15;;;;;;;22.69;63.88;100881.63;1714818;83;21569;-82
2021/07/02 08:50:49;;;;;;;6.65;4.80;;;;;;;22.70;63.72;100880.69;1714715;83;21918;-82
2021/07/02 08:53:19;;;;;;;11.85;4.62;;;;;;;22.73;63.67;100875.73;1714460;83;21088;-86
2021/07/02 08:55:51;;;;;;;6.40;5.20;;;;;;;22.85;63.82;100862.47;1713701;83;21052;-84
2021/07/02 08:58:18;;;;;;;7.78;5.50;;;;;;;22.85;63.82;100862.47;1714780;83;21064;-82
2021/07/02 09:00:44;;;;;;;10.50;8.33;;;;;;;23.07;63.47;100877.63;1714644;83;21071;-82
2021/07/02 09:03:37;;;;;;;7.92;6.08;;;;;;;23.07;63.19;100877.63;1714598;83;21759;-82
2021/07/02 09:06:21;;;;;;;7.08;5.22;;;;;;;23.04;63.08;100883.06;1714529;83;21061;-83
2021/07/02 09:09:07;;;;;;;6.05;5.00;;;;;;;22.65;62.95;100886.61;1713532;83;21060;-85
2021/07/02 09:11:34;;;;;;;6.35;4.72;;;;;;;22.65;62.95;100886.61;1714560;82;21553;-83
2021/07/02 09:14:01;;;;;;;9.55;5.90;;;;;;;22.54;63.33;100888.66;1714967;83;21068;-85
2021/07/02 09:16:37;;;;;;;5.45;4.80;;;;;;;22.54;63.33;100888.66;1714548;83;21825;-83
2021/07/02 09:19:34;;;;;;;7.90;4.67;;;;;;;22.46;63.47;100887.95;1714700;83;21123;-85
2021/07/02 09:22:15;;;;;;;6.55;4.92;;;;;;;22.33;63.87;100865.88;1713465;83;21555;-83
2021/07/02 09:24:45;;;;;;;8.10;6.70;;;;;;;22.53;64.05;100889.59;1714674;83;21076;-85
2021/07/02 09:27:26;;;;;;;8.28;5.62;;;;;;;22.61;63.95;100890.75;1660573;85;21047;-83
2021/07/02 09:30:24;;;;;;;5.30;4.80;;;;;;;22.57;63.93;100868.47;1660671;86;21800;-84
2021/07/02 09:32:56;;;;;;;5.70;5.08;;;;;;;22.57;63.93;100868.47;1660628;86;21071;-82
2021/07/02 09:35:25;;;;;;;6.90;5.80;;;;;;;22.76;64.19;100882.81;1660745;86;21073;-81
2021/07/02 09:37:59;;;;;;;5.00;4.50;;;;;;;22.91;63.92;100890.03;1639415;86;21150;-82
2021/07/02 09:40:35;;;;;;;6.95;4.80;;;;;;;22.91;63.92;100890.03;1660764;86;21139;-83
2021/07/02 09:43:16;;;;;;;6.40;4.95;;;;;;;23.05;63.92;100890.22;1660530;86;21779;-82
2021/07/02 09:45:54;;;;;;;6.75;4.45;;;;;;;23.03;63.66;100887.56;1660543;86;21074;-84
2021/07/02 09:48:23;;;;;;;7.35;6.15;;;;;;;;;;1660798;86;21031;-83
2021/07/02 09:50:51;;;;;;;6.60;4.85;;;;;;;22.93;62.73;100889.13;1660585;85;21106;-84
2021/07/02 09:53:34;;;;;;;6.92;5.37;;;;;;;22.78;63.30;100894.39;1660774;85;22170;-83
2021/07/02 09:55:58;;;;;;;6.85;6.10;;;;;;;22.58;62.95;100885.02;1658336;85;21859;-82
2021/07/02 09:58:39;;;;;;;6.83;6.22;;;;;;;22.27;62.67;100884.79;1660518;86;21033;-84
2021/07/02 10:01:07;;;;;;;7.15;5.70;;;;;;;22.27;62.67;100884.79;1660703;86;21039;-81
2021/07/02 10:03:42;;;;;;;5.60;5.10;;;;;;;22.09;63.07;100907.02;1660657;86;21573;-81
2021/07/02 10:06:22;;;;;;;7.28;5.58;;;;;;;21.94;63.39;100908.20;1660178;85;21039;-81
2021/07/02 10:08:48;;;;;;;6.85;4.65;;;;;;;21.89;63.96;100899.36;1658007;86;21792;-81
2021/07/02 10:11:16;;;;;;;7.62;5.03;;;;;;;21.96;63.92;100907.27;1660809;86;21135;-82
2021/07/02 10:13:44;;;;;;;6.20;5.55;;;;;;;21.95;63.91;100907.74;1694843;83;21072;-84
2021/07/02 10:16:14;;;;;;;7.50;5.00;;;;;;;21.87;64.04;100909.70;1652326;84;21065;-84
2021/07/02 10:18:57;;;;;;;9.35;5.87;;;;;;;21.92;64.36;100911.81;1694847;83;21100;-84
2021/07/02 10:21:30;;;;;;;5.53;4.90;;;;;;;22.01;64.36;100911.63;1642197;86;21875;-86
2021/07/02 10:24:08;;;;;;;4.42;4.03;;;;;;;22.02;64.09;100912.07;1620115;87;21043;-82
2021/07/02 10:26:37;;;;;;;5.33;4.80;;;;;;;21.98;63.95;100915.73;1620204;87;21135;-86
2021/07/02 10:29:03;;;;;;;6.72;5.62;;;;;;;21.88;63.83;100918.14;1620230;87;21109;-85
2021/07/02 10:31:33;;;;;;;6.50;5.47;;;;;;;21.84;64.18;100909.74;1642675;87;21168;-86
2021/07/02 10:34:00;;;;;;;7.12;5.08;;;;;;;21.93;64.27;100909.57;1642355;87;22563;-84
2021/07/02 10:36:36;;;;;;;6.28;4.60;;;;;;;22.02;64.31;100916.56;1642196;87;21046;-87
2021/07/02 10:39:04;;;;;;;9.18;5.37;;;;;;;22.09;64.28;100911.05;1642277;87;21194;-83
2021/07/02 10:41:32;;;;;;;6.62;5.05;;;;;;;22.19;64.16;100909.52;1642287;87;21149;-86
2021/07/02 10:44:07;;;;;;;7.35;5.28;;;;;;;22.34;63.97;100905.67;1642257;86;21281;-84
2021/07/02 10:46:35;;;;;;;5.83;5.15;;;;;;;22.49;64.13;100900.84;1642182;87;22652;-82
2021/07/02 10:49:10;;;;;;;9.85;5.55;;;;;;;22.70;63.91;100899.94;1642062;87;21063;-82
2021/07/02 10:51:48;;;;;;;9.15;7.60;;;;;;;22.83;63.64;100905.44;1642245;87;21568;-81
2021/07/02 10:54:23;;;;;;;9.58;6.37;;;;;;;22.98;63.54;100902.86;1641993;87;21311;-81
2021/07/02 10:56:59;;;;;;;6.28;5.40;;;;;;;;;;1642000;87;21722;-80
2021/07/02 10:59:46;;;;;;;8.80;5.35;;;;;;;23.09;63.13;100873.10;1695166;83;21827;-81
2021/07/02 11:02:18;;;;;;;7.72;6.72;;;;;;;23.33;62.93;100901.58;1663888;84;21085;-82
2021/07/02 11:04:53;;;;;;;10.03;6.58;;;;;;;23.30;62.42;100898.53;1695100;83;21022;-84
2021/07/02 11:07:31;;;;;;;6.65;6.05;;;;;;;23.22;62.38;100895.16;1695366;83;21140;-87
2021/07/02 11:10:03;;;;;;;6.05;5.03;;;;;;;23.29;62.51;100884.22;1664119;84;21597;-85
2021/07/02 11:12:52;;;;;;;7.05;5.58;;;;;;;23.42;62.47;100883.42;1681575;83;21909;-84
2021/07/02 11:15:19;;;;;;;6.85;5.72;;;;;;;23.52;62.20;100881.83;1706844;84;21108;-87
2021/07/02 11:17:49;;;;;;;8.20;5.28;;;;;;;23.56;61.69;100889.80;1707148;84;21005;-86
2021/07/02 11:20:25;;;;;;;7.75;5.37;;;;;;;23.40;61.31;100891.11;1681755;84;21708;-87
2021/07/02 11:23:10;;;;;;;10.10;7.15;;;;;;;23.36;61.66;100890.77;1706894;84;21072;-86
2021/07/02 11:26:01;;;;;;;9.10;6.50;;;;;;;23.38;61.65;100895.17;1707073;83;22710;-83
2021/07/02 11:28:46;;;;;;;7.22;6.53;;;;;;;23.32;61.42;100895.34;1689945;84;21001;-90
2021/07/02 11:31:13;;;;;;;7.65;6.40;;;;;;;23.24;61.53;100900.03;1706924;83;21122;-84
2021/07/02 11:33:40;;;;;;;9.98;6.28;;;;;;;23.19;61.54;100893.42;1707074;83;21053;-84
2021/07/02 11:36:12;;;;;;;8.55;5.33;;;;;;;23.12;61.57;100891.80;1707041;84;21594;-84
2021/07/02 11:38:55;;;;;;;7.45;5.65;;;;;;;23.05;61.51;100892.43;1710319;83;21009;-85